sensor_id;sensor_type;location;lat;lon;timestamp;P1;durP1;ratioP1;P2;durP2;ratioP2
56413;SDS011;42318;48.452;19.526;2023-06-26T00:02:51;3.65;;;2.42;;
56413;SDS011;42318;48.452;19.526;2023-06-26T00:10:21;4.90;;;2.60;;
56413;SDS011;42318;48.452;19.526;2023-06-26T00:17:52;3.08;;;2.45;;
56413;SDS011;42318;48.452;19.526;2023-06-26T00:25:23;3.60;;;2.65;;
56413;SDS011;42318;48.452;19.526;2023-06-26T00:32:54;3.85;;;2.58;;
56413;SDS011;42318;48.452;19.526;2023-06-26T00:40:25;3.55;;;3.05;;
56413;SDS011;42318;48.452;19.526;2023-06-26T00:47:57;5.22;;;3.05;;
56413;SDS011;42318;48.452;19.526;2023-06-26T00:55:28;4.13;;;3.20;;
56413;SDS011;42318;48.452;19.526;2023-06-26T01:02:59;3.88;;;2.90;;
56413;SDS011;42318;48.452;19.526;2023-06-26T01:10:30;5.72;;;2.95;;
56413;SDS011;42318;48.452;19.526;2023-06-26T01:18:01;5.28;;;3.38;;
56413;SDS011;42318;48.452;19.526;2023-06-26T01:25:38;4.53;;;3.10;;
56413;SDS011;42318;48.452;19.526;2023-06-26T01:33:19;4.35;;;3.10;;
56413;SDS011;42318;48.452;19.526;2023-06-26T01:40:50;4.75;;;3.53;;
56413;SDS011;42318;48.452;19.526;2023-06-26T01:48:22;5.20;;;3.65;;
56413;SDS011;42318;48.452;19.526;2023-06-26T01:56:08;5.75;;;3.40;;
56413;SDS011;42318;48.452;19.526;2023-06-26T02:03:44;5.00;;;3.50;;
56413;SDS011;42318;48.452;19.526;2023-06-26T02:11:14;4.72;;;3.70;;
56413;SDS011;42318;48.452;19.526;2023-06-26T02:18:45;7.50;;;3.30;;
56413;SDS011;42318;48.452;19.526;2023-06-26T02:26:16;4.40;;;3.50;;
56413;SDS011;42318;48.452;19.526;2023-06-26T02:33:47;5.68;;;4.10;;
56413;SDS011;42318;48.452;19.526;2023-06-26T02:41:18;4.47;;;3.45;;
56413;SDS011;42318;48.452;19.526;2023-06-26T02:48:48;4.40;;;3.72;;
56413;SDS011;42318;48.452;19.526;2023-06-26T02:56:20;4.80;;;3.65;;
56413;SDS011;42318;48.452;19.526;2023-06-26T03:03:51;5.75;;;3.53;;
56413;SDS011;42318;48.452;19.526;2023-06-26T03:11:22;5.20;;;4.35;;
56413;SDS011;42318;48.452;19.526;2023-06-26T03:18:53;4.65;;;3.83;;
56413;SDS011;42318;48.452;19.526;2023-06-26T03:26:23;6.10;;;4.07;;
56413;SDS011;42318;48.452;19.526;2023-06-26T03:33:57;7.47;;;4.10;;
56413;SDS011;42318;48.452;19.526;2023-06-26T03:41:28;5.55;;;3.95;;
56413;SDS011;42318;48.452;19.526;2023-06-26T03:48:59;5.38;;;4.00;;
56413;SDS011;42318;48.452;19.526;2023-06-26T03:56:30;5.05;;;3.97;;
56413;SDS011;42318;48.452;19.526;2023-06-26T04:04:01;5.45;;;3.95;;
56413;SDS011;42318;48.452;19.526;2023-06-26T04:11:31;7.20;;;3.97;;
56413;SDS011;42318;48.452;19.526;2023-06-26T04:19:02;5.55;;;4.18;;
56413;SDS011;42318;48.452;19.526;2023-06-26T04:26:35;6.38;;;3.88;;
56413;SDS011;42318;48.452;19.526;2023-06-26T04:34:06;5.22;;;3.80;;
56413;SDS011;42318;48.452;19.526;2023-06-26T04:41:36;6.55;;;4.72;;
56413;SDS011;42318;48.452;19.526;2023-06-26T04:49:08;6.43;;;4.38;;
56413;SDS011;42318;48.452;19.526;2023-06-26T04:56:39;6.93;;;4.13;;
56413;SDS011;42318;48.452;19.526;2023-06-26T05:04:14;6.35;;;4.43;;
56413;SDS011;42318;48.452;19.526;2023-06-26T05:11:45;5.03;;;4.25;;
56413;SDS011;42318;48.452;19.526;2023-06-26T05:19:16;6.18;;;4.50;;
56413;SDS011;42318;48.452;19.526;2023-06-26T05:26:47;5.30;;;4.05;;
56413;SDS011;42318;48.452;19.526;2023-06-26T05:34:19;6.37;;;4.40;;
56413;SDS011;42318;48.452;19.526;2023-06-26T05:41:53;4.85;;;3.75;;
56413;SDS011;42318;48.452;19.526;2023-06-26T05:49:24;7.07;;;4.97;;
56413;SDS011;42318;48.452;19.526;2023-06-26T05:56:58;6.03;;;4.72;;
56413;SDS011;42318;48.452;19.526;2023-06-26T06:04:29;5.90;;;4.65;;
56413;SDS011;42318;48.452;19.526;2023-06-26T06:12:00;8.52;;;4.78;;
56413;SDS011;42318;48.452;19.526;2023-06-26T06:19:31;6.10;;;4.47;;
56413;SDS011;42318;48.452;19.526;2023-06-26T06:27:02;6.07;;;4.28;;
56413;SDS011;42318;48.452;19.526;2023-06-26T06:34:33;5.60;;;4.87;;
56413;SDS011;42318;48.452;19.526;2023-06-26T06:42:04;6.35;;;4.63;;
56413;SDS011;42318;48.452;19.526;2023-06-26T06:49:35;5.43;;;4.43;;
56413;SDS011;42318;48.452;19.526;2023-06-26T06:57:06;5.32;;;4.13;;
56413;SDS011;42318;48.452;19.526;2023-06-26T07:04:37;5.27;;;4.43;;
56413;SDS011;42318;48.452;19.526;2023-06-26T07:12:09;6.95;;;5.15;;
56413;SDS011;42318;48.452;19.526;2023-06-26T07:19:40;6.60;;;4.40;;
56413;SDS011;42318;48.452;19.526;2023-06-26T07:27:11;7.03;;;4.38;;
56413;SDS011;42318;48.452;19.526;2023-06-26T07:34:41;7.00;;;4.90;;
56413;SDS011;42318;48.452;19.526;2023-06-26T07:42:12;7.18;;;4.50;;
56413;SDS011;42318;48.452;19.526;2023-06-26T07:49:43;6.00;;;4.57;;
56413;SDS011;42318;48.452;19.526;2023-06-26T07:57:20;4.90;;;4.33;;
56413;SDS011;42318;48.452;19.526;2023-06-26T08:04:51;6.30;;;5.05;;
56413;SDS011;42318;48.452;19.526;2023-06-26T08:12:28;5.78;;;4.57;;
56413;SDS011;42318;48.452;19.526;2023-06-26T08:19:59;5.68;;;4.40;;
56413;SDS011;42318;48.452;19.526;2023-06-26T08:27:29;6.50;;;4.68;;
56413;SDS011;42318;48.452;19.526;2023-06-26T08:35:00;6.53;;;5.03;;
56413;SDS011;42318;48.452;19.526;2023-06-26T08:42:31;5.90;;;4.38;;
56413;SDS011;42318;48.452;19.526;2023-06-26T09:04:34;5.78;;;4.38;;
56413;SDS011;42318;48.452;19.526;2023-06-26T09:19:36;5.18;;;3.97;;
56413;SDS011;42318;48.452;19.526;2023-06-26T09:34:40;5.07;;;3.60;;
56413;SDS011;42318;48.452;19.526;2023-06-26T09:49:43;4.68;;;4.22;;
56413;SDS011;42318;48.452;19.526;2023-06-26T10:04:53;5.80;;;4.22;;
56413;SDS011;42318;48.452;19.526;2023-06-26T10:09:54;5.15;;;4.05;;
56413;SDS011;42318;48.452;19.526;2023-06-26T10:14:57;7.72;;;4.30;;
56413;SDS011;42318;48.452;19.526;2023-06-26T10:19:58;4.75;;;3.85;;
56413;SDS011;42318;48.452;19.526;2023-06-26T10:25:03;5.47;;;4.28;;
56413;SDS011;42318;48.452;19.526;2023-06-26T10:30:09;5.20;;;3.58;;
56413;SDS011;42318;48.452;19.526;2023-06-26T10:35:14;4.65;;;3.90;;
56413;SDS011;42318;48.452;19.526;2023-06-26T10:40:24;4.90;;;3.75;;
56413;SDS011;42318;48.452;19.526;2023-06-26T10:45:27;5.07;;;4.43;;
56413;SDS011;42318;48.452;19.526;2023-06-26T10:50:29;6.82;;;4.03;;
56413;SDS011;42318;48.452;19.526;2023-06-26T10:55:39;6.45;;;4.15;;
56413;SDS011;42318;48.452;19.526;2023-06-26T11:00:49;4.97;;;4.22;;
56413;SDS011;42318;48.452;19.526;2023-06-26T11:06:08;5.43;;;4.30;;
56413;SDS011;42318;48.452;19.526;2023-06-26T11:11:13;5.15;;;3.92;;
56413;SDS011;42318;48.452;19.526;2023-06-26T11:16:14;4.90;;;3.80;;
56413;SDS011;42318;48.452;19.526;2023-06-26T11:21:16;6.15;;;4.57;;
56413;SDS011;42318;48.452;19.526;2023-06-26T11:26:21;6.32;;;3.95;;
56413;SDS011;42318;48.452;19.526;2023-06-26T11:36:27;7.38;;;4.38;;
56413;SDS011;42318;48.452;19.526;2023-06-26T11:41:30;6.80;;;4.10;;
56413;SDS011;42318;48.452;19.526;2023-06-26T11:46:32;7.80;;;4.10;;
56413;SDS011;42318;48.452;19.526;2023-06-26T11:51:34;7.28;;;4.30;;
56413;SDS011;42318;48.452;19.526;2023-06-26T11:56:36;5.47;;;3.85;;
56413;SDS011;42318;48.452;19.526;2023-06-26T12:01:43;9.48;;;4.72;;
56413;SDS011;42318;48.452;19.526;2023-06-26T12:06:46;5.32;;;3.72;;
56413;SDS011;42318;48.452;19.526;2023-06-26T12:11:50;5.18;;;3.90;;
56413;SDS011;42318;48.452;19.526;2023-06-26T12:16:53;4.95;;;4.00;;
56413;SDS011;42318;48.452;19.526;2023-06-26T12:21:54;6.55;;;3.88;;
56413;SDS011;42318;48.452;19.526;2023-06-26T12:26:56;5.80;;;4.45;;
56413;SDS011;42318;48.452;19.526;2023-06-26T12:31:57;6.35;;;3.92;;
56413;SDS011;42318;48.452;19.526;2023-06-26T12:37:02;5.60;;;4.13;;
56413;SDS011;42318;48.452;19.526;2023-06-26T12:42:05;4.53;;;3.42;;
56413;SDS011;42318;48.452;19.526;2023-06-26T12:47:06;5.82;;;3.63;;
56413;SDS011;42318;48.452;19.526;2023-06-26T12:52:12;9.13;;;3.92;;
56413;SDS011;42318;48.452;19.526;2023-06-26T12:57:14;5.00;;;4.00;;
56413;SDS011;42318;48.452;19.526;2023-06-26T13:02:15;7.60;;;3.67;;
56413;SDS011;42318;48.452;19.526;2023-06-26T13:07:15;4.85;;;3.55;;
56413;SDS011;42318;48.452;19.526;2023-06-26T13:12:16;4.63;;;3.33;;
56413;SDS011;42318;48.452;19.526;2023-06-26T13:17:17;4.10;;;3.70;;
56413;SDS011;42318;48.452;19.526;2023-06-26T13:22:18;5.55;;;3.65;;
56413;SDS011;42318;48.452;19.526;2023-06-26T13:27:19;5.45;;;3.58;;
56413;SDS011;42318;48.452;19.526;2023-06-26T13:32:24;5.03;;;3.78;;
56413;SDS011;42318;48.452;19.526;2023-06-26T13:37:34;6.35;;;3.75;;
56413;SDS011;42318;48.452;19.526;2023-06-26T13:42:35;5.28;;;3.90;;
56413;SDS011;42318;48.452;19.526;2023-06-26T13:47:36;5.53;;;3.90;;
56413;SDS011;42318;48.452;19.526;2023-06-26T13:52:40;4.90;;;3.72;;
56413;SDS011;42318;48.452;19.526;2023-06-26T13:57:41;5.20;;;3.60;;
56413;SDS011;42318;48.452;19.526;2023-06-26T14:02:42;4.15;;;3.50;;
56413;SDS011;42318;48.452;19.526;2023-06-26T14:07:43;4.40;;;3.50;;
56413;SDS011;42318;48.452;19.526;2023-06-26T14:12:44;4.53;;;3.67;;
56413;SDS011;42318;48.452;19.526;2023-06-26T14:17:44;4.75;;;3.17;;
56413;SDS011;42318;48.452;19.526;2023-06-26T14:22:45;4.55;;;3.50;;
56413;SDS011;42318;48.452;19.526;2023-06-26T14:27:46;5.38;;;3.40;;
56413;SDS011;42318;48.452;19.526;2023-06-26T14:32:47;4.95;;;4.05;;
56413;SDS011;42318;48.452;19.526;2023-06-26T14:37:48;4.72;;;3.40;;
56413;SDS011;42318;48.452;19.526;2023-06-26T14:42:49;4.97;;;3.63;;
56413;SDS011;42318;48.452;19.526;2023-06-26T14:47:50;4.45;;;3.28;;
56413;SDS011;42318;48.452;19.526;2023-06-26T14:52:51;5.18;;;3.72;;
56413;SDS011;42318;48.452;19.526;2023-06-26T14:57:52;4.70;;;3.38;;
56413;SDS011;42318;48.452;19.526;2023-06-26T15:02:52;4.00;;;3.42;;
56413;SDS011;42318;48.452;19.526;2023-06-26T15:07:54;4.32;;;3.55;;
56413;SDS011;42318;48.452;19.526;2023-06-26T15:12:55;5.38;;;3.75;;
56413;SDS011;42318;48.452;19.526;2023-06-26T15:17:56;5.00;;;3.60;;
56413;SDS011;42318;48.452;19.526;2023-06-26T15:22:57;4.53;;;3.60;;
56413;SDS011;42318;48.452;19.526;2023-06-26T15:27:58;3.80;;;3.15;;
56413;SDS011;42318;48.452;19.526;2023-06-26T15:32:59;4.35;;;3.58;;
56413;SDS011;42318;48.452;19.526;2023-06-26T15:38:00;3.70;;;3.30;;
56413;SDS011;42318;48.452;19.526;2023-06-26T15:43:01;3.75;;;3.40;;
56413;SDS011;42318;48.452;19.526;2023-06-26T15:48:02;5.68;;;3.20;;
56413;SDS011;42318;48.452;19.526;2023-06-26T15:53:03;4.15;;;3.33;;
56413;SDS011;42318;48.452;19.526;2023-06-26T15:58:04;3.60;;;3.15;;
56413;SDS011;42318;48.452;19.526;2023-06-26T16:03:05;5.97;;;3.30;;
56413;SDS011;42318;48.452;19.526;2023-06-26T16:08:05;3.83;;;3.10;;
56413;SDS011;42318;48.452;19.526;2023-06-26T16:13:06;7.15;;;2.97;;
56413;SDS011;42318;48.452;19.526;2023-06-26T16:18:07;4.60;;;3.63;;
56413;SDS011;42318;48.452;19.526;2023-06-26T16:23:08;3.85;;;3.17;;
56413;SDS011;42318;48.452;19.526;2023-06-26T16:28:09;3.95;;;3.50;;
56413;SDS011;42318;48.452;19.526;2023-06-26T16:33:10;6.80;;;3.17;;
56413;SDS011;42318;48.452;19.526;2023-06-26T16:38:11;4.05;;;3.42;;
56413;SDS011;42318;48.452;19.526;2023-06-26T16:43:12;4.43;;;3.45;;
56413;SDS011;42318;48.452;19.526;2023-06-26T16:48:13;4.63;;;3.22;;
56413;SDS011;42318;48.452;19.526;2023-06-26T16:53:14;4.30;;;3.42;;
56413;SDS011;42318;48.452;19.526;2023-06-26T16:58:15;4.47;;;3.20;;
56413;SDS011;42318;48.452;19.526;2023-06-26T17:03:16;5.38;;;3.88;;
56413;SDS011;42318;48.452;19.526;2023-06-26T17:08:18;3.90;;;3.08;;
56413;SDS011;42318;48.452;19.526;2023-06-26T17:13:19;5.72;;;3.45;;
56413;SDS011;42318;48.452;19.526;2023-06-26T17:18:20;5.07;;;3.70;;
56413;SDS011;42318;48.452;19.526;2023-06-26T17:23:21;4.20;;;3.40;;
56413;SDS011;42318;48.452;19.526;2023-06-26T17:28:21;4.50;;;3.28;;
56413;SDS011;42318;48.452;19.526;2023-06-26T17:33:22;3.88;;;3.28;;
56413;SDS011;42318;48.452;19.526;2023-06-26T17:38:23;5.10;;;3.42;;
56413;SDS011;42318;48.452;19.526;2023-06-26T17:43:24;4.88;;;3.78;;
56413;SDS011;42318;48.452;19.526;2023-06-26T17:48:24;4.38;;;3.50;;
56413;SDS011;42318;48.452;19.526;2023-06-26T17:53:25;5.00;;;3.50;;
56413;SDS011;42318;48.452;19.526;2023-06-26T17:58:26;4.10;;;3.55;;
56413;SDS011;42318;48.452;19.526;2023-06-26T18:03:27;5.70;;;3.40;;
56413;SDS011;42318;48.452;19.526;2023-06-26T18:08:28;4.35;;;3.53;;
56413;SDS011;42318;48.452;19.526;2023-06-26T18:13:29;4.80;;;3.72;;
56413;SDS011;42318;48.452;19.526;2023-06-26T18:18:32;4.20;;;3.47;;
56413;SDS011;42318;48.452;19.526;2023-06-26T18:23:33;5.13;;;3.90;;
56413;SDS011;42318;48.452;19.526;2023-06-26T18:28:34;5.55;;;4.18;;
56413;SDS011;42318;48.452;19.526;2023-06-26T18:33:34;5.70;;;4.10;;
56413;SDS011;42318;48.452;19.526;2023-06-26T18:38:35;5.93;;;4.30;;
56413;SDS011;42318;48.452;19.526;2023-06-26T18:43:38;6.63;;;4.30;;
56413;SDS011;42318;48.452;19.526;2023-06-26T18:48:40;5.10;;;4.50;;
56413;SDS011;42318;48.452;19.526;2023-06-26T18:53:41;6.65;;;4.45;;
56413;SDS011;42318;48.452;19.526;2023-06-26T18:58:44;5.15;;;4.00;;
56413;SDS011;42318;48.452;19.526;2023-06-26T19:03:45;6.43;;;4.15;;
56413;SDS011;42318;48.452;19.526;2023-06-26T19:08:45;5.32;;;4.22;;
56413;SDS011;42318;48.452;19.526;2023-06-26T19:13:46;7.85;;;4.75;;
56413;SDS011;42318;48.452;19.526;2023-06-26T19:18:47;8.10;;;4.55;;
56413;SDS011;42318;48.452;19.526;2023-06-26T19:23:48;6.55;;;4.32;;
56413;SDS011;42318;48.452;19.526;2023-06-26T19:28:49;5.57;;;4.22;;
56413;SDS011;42318;48.452;19.526;2023-06-26T19:33:50;10.18;;;4.55;;
56413;SDS011;42318;48.452;19.526;2023-06-26T19:38:50;6.22;;;4.28;;
56413;SDS011;42318;48.452;19.526;2023-06-26T19:43:51;7.10;;;4.20;;
56413;SDS011;42318;48.452;19.526;2023-06-26T19:48:52;8.13;;;4.68;;
56413;SDS011;42318;48.452;19.526;2023-06-26T19:53:53;8.93;;;4.32;;
56413;SDS011;42318;48.452;19.526;2023-06-26T19:58:54;6.60;;;3.78;;
56413;SDS011;42318;48.452;19.526;2023-06-26T20:03:55;6.60;;;4.25;;
56413;SDS011;42318;48.452;19.526;2023-06-26T20:08:56;6.50;;;4.10;;
56413;SDS011;42318;48.452;19.526;2023-06-26T20:13:57;5.32;;;3.90;;
56413;SDS011;42318;48.452;19.526;2023-06-26T20:18:57;6.05;;;3.30;;
56413;SDS011;42318;48.452;19.526;2023-06-26T20:23:58;5.18;;;4.00;;
56413;SDS011;42318;48.452;19.526;2023-06-26T20:29:00;8.88;;;3.95;;
56413;SDS011;42318;48.452;19.526;2023-06-26T20:34:01;5.68;;;4.07;;
56413;SDS011;42318;48.452;19.526;2023-06-26T20:39:03;5.82;;;3.75;;
56413;SDS011;42318;48.452;19.526;2023-06-26T20:44:04;4.15;;;3.35;;
56413;SDS011;42318;48.452;19.526;2023-06-26T20:49:05;7.40;;;3.80;;
56413;SDS011;42318;48.452;19.526;2023-06-26T20:54:06;5.68;;;3.72;;
56413;SDS011;42318;48.452;19.526;2023-06-26T20:59:07;5.45;;;3.53;;
56413;SDS011;42318;48.452;19.526;2023-06-26T21:04:08;4.60;;;3.35;;
56413;SDS011;42318;48.452;19.526;2023-06-26T21:09:08;4.72;;;3.45;;
56413;SDS011;42318;48.452;19.526;2023-06-26T21:14:09;5.97;;;3.67;;
56413;SDS011;42318;48.452;19.526;2023-06-26T21:19:10;5.07;;;3.22;;
56413;SDS011;42318;48.452;19.526;2023-06-26T21:24:11;5.13;;;3.60;;
56413;SDS011;42318;48.452;19.526;2023-06-26T21:29:12;5.82;;;3.60;;
56413;SDS011;42318;48.452;19.526;2023-06-26T21:34:12;6.97;;;3.50;;
56413;SDS011;42318;48.452;19.526;2023-06-26T21:39:14;5.55;;;3.35;;
56413;SDS011;42318;48.452;19.526;2023-06-26T21:44:15;6.07;;;3.53;;
56413;SDS011;42318;48.452;19.526;2023-06-26T21:49:16;6.43;;;3.33;;
56413;SDS011;42318;48.452;19.526;2023-06-26T21:54:17;4.45;;;3.42;;
56413;SDS011;42318;48.452;19.526;2023-06-26T21:59:18;4.97;;;3.70;;
56413;SDS011;42318;48.452;19.526;2023-06-26T22:04:18;4.28;;;3.20;;
56413;SDS011;42318;48.452;19.526;2023-06-26T22:09:19;4.57;;;3.47;;
56413;SDS011;42318;48.452;19.526;2023-06-26T22:14:20;5.10;;;3.47;;
56413;SDS011;42318;48.452;19.526;2023-06-26T22:19:21;5.85;;;3.40;;
56413;SDS011;42318;48.452;19.526;2023-06-26T22:24:22;5.65;;;3.58;;
56413;SDS011;42318;48.452;19.526;2023-06-26T22:29:22;6.50;;;3.47;;
56413;SDS011;42318;48.452;19.526;2023-06-26T22:34:23;6.15;;;3.40;;
56413;SDS011;42318;48.452;19.526;2023-06-26T22:39:25;4.50;;;3.47;;
56413;SDS011;42318;48.452;19.526;2023-06-26T22:44:26;5.50;;;3.47;;
56413;SDS011;42318;48.452;19.526;2023-06-26T22:49:26;4.97;;;3.75;;
56413;SDS011;42318;48.452;19.526;2023-06-26T22:54:27;5.63;;;3.75;;
56413;SDS011;42318;48.452;19.526;2023-06-26T22:59:28;4.88;;;3.45;;
56413;SDS011;42318;48.452;19.526;2023-06-26T23:04:29;5.60;;;3.15;;
56413;SDS011;42318;48.452;19.526;2023-06-26T23:09:30;6.05;;;3.30;;
56413;SDS011;42318;48.452;19.526;2023-06-26T23:14:30;5.60;;;3.55;;
56413;SDS011;42318;48.452;19.526;2023-06-26T23:19:32;4.80;;;3.20;;
56413;SDS011;42318;48.452;19.526;2023-06-26T23:24:34;4.93;;;3.15;;
56413;SDS011;42318;48.452;19.526;2023-06-26T23:29:37;4.65;;;3.45;;
56413;SDS011;42318;48.452;19.526;2023-06-26T23:34:39;5.43;;;3.55;;
56413;SDS011;42318;48.452;19.526;2023-06-26T23:39:40;5.40;;;3.45;;
56413;SDS011;42318;48.452;19.526;2023-06-26T23:44:42;5.55;;;3.40;;
56413;SDS011;42318;48.452;19.526;2023-06-26T23:49:43;6.15;;;3.55;;
56413;SDS011;42318;48.452;19.526;2023-06-26T23:54:44;4.32;;;3.40;;
56413;SDS011;42318;48.452;19.526;2023-06-26T23:59:45;4.50;;;3.47;;
